Swansea, Illinois
Current Conditions -  °F | °C
As of 11:58 AM on Thursday 23 Oct 2014 (Local Time) from KBLV Reporting Station
Few Clouds Few Clouds  
Wind Chill: 58°   Ceiling: Unl
Heat Index: 58°   Visibility: 7mi
Dew Point: 45°   Wind: 6mph
Humidity: 62%   Direction: NA
Pressure: 30.2"   Gusts: NA
Location:  38.5093°N, 89.8955°W
Report Text: KBLV 231658Z VRB05KT 7SM FEW210 15/07 A3020 RMK AO2A SLP231 T01450073
Loading
Personal Weather Stations






























Interactive Weather Map
Tropical Storm Tracking
New forecast layout! Learn more

10-Day Weather Forecast

Advertisements
Track Severe Weather on mobile